| time (UTC) | temp F | wind direction | speed MPH | gust MPH | rain 1hr in | rain 24hr in | rain mn in | humidity % | barometer mb |
| 20260505210024 | 78 | 56 | 1.0 | 3.0 | 0.00 | 0.00 | 0.00 | 40 | 1013.4 |
| 20260505204527 | 78 | 160 | 1.0 | 3.0 | 0.00 | 0.00 | 0.00 | 39 | 1013.5 |
| 20260505203026 | 78 | 132 | 1.0 | 2.0 | 0.00 | 0.00 | 0.00 | 41 | 1013.7 |
| 20260505201519 | 78 | 173 | 0.0 | 3.0 | 0.00 | 0.00 | 0.00 | 40 | 1013.8 |
| 20260505200024 | 79 | 359 | 1.0 | 4.0 | 0.00 | 0.00 | 0.00 | 37 | 1014.0 |
| 20260505194525 | 79 | 127 | 1.0 | 4.0 | 0.00 | 0.00 | 0.00 | 39 | 1014.1 |
| 20260505193034 | 79 | 132 | 1.0 | 2.0 | 0.00 | 0.00 | 0.00 | 38 | 1014.2 |
| 20260505191522 | 79 | 71 | 1.0 | 2.0 | 0.00 | 0.00 | 0.00 | 38 | 1014.3 |
| 20260505190023 | 79 | 105 | 1.0 | 2.0 | 0.00 | 0.00 | 0.00 | 40 | 1014.4 |
| 20260505184504 | 78 | 116 | 0.0 | 3.0 | 0.00 | 0.00 | 0.00 | 42 | 1014.5 |
| 20260505183012 | 78 | 2 | 1.0 | 3.0 | 0.00 | 0.00 | 0.00 | 39 | 1014.9 |
| 20260505181515 | 79 | 72 | 1.0 | 3.0 | 0.00 | 0.00 | 0.00 | 38 | 1015.0 |
| 20260505180004 | 79 | 81 | 0.0 | 2.0 | 0.00 | 0.00 | 0.00 | 41 | 1015.3 |
| 20260505174505 | 78 | 27 | 2.0 | 5.0 | 0.00 | 0.00 | 0.00 | 37 | 1015.5 |
| 20260505173006 | 77 | 145 | 1.0 | 4.0 | 0.00 | 0.00 | 0.00 | 42 | 1015.6 |
| 20260505171513 | 77 | 147 | 0.0 | 2.0 | 0.00 | 0.00 | 0.00 | 42 | 1015.7 |
| 20260505170017 | 76 | 143 | 1.0 | 2.0 | 0.00 | 0.00 | 0.00 | 44 | 1015.5 |
| 20260505164506 | 73 | 124 | 1.0 | 5.0 | 0.00 | 0.00 | 0.00 | 50 | 1015.8 |
| 20260505163008 | 73 | 127 | 2.0 | 6.0 | 0.00 | 0.00 | 0.00 | 45 | 1015.8 |
| 20260505161512 | 72 | 20 | 2.0 | 6.0 | 0.00 | 0.00 | 0.00 | 45 | 1015.9 |
| 20260505153005 | 69 | 238 | 0.0 | 3.0 | 0.00 | 0.00 | 0.00 | 59 | 1016.0 |
| 20260505151509 | 68 | 356 | 1.0 | 3.0 | 0.00 | 0.00 | 0.00 | 60 | 1016.4 |
| 20260505124521 | 56 | 53 | 0.0 | 2.0 | 0.00 | 0.00 | 0.00 | 77 | 1015.5 |
| 20260505123021 | 53 | 95 | 0.0 | 1.0 | 0.00 | 0.00 | 0.00 | 82 | 1015.5 |
| 20260505121524 | 52 | 106 | 0.0 | 0.0 | 0.00 | 0.00 | 0.00 | 85 | 1015.7 |
| 20260505120007 | 51 | 105 | 0.0 | 0.0 | 0.00 | 0.00 | 0.00 | 86 | 1015.5 |
| 20260505114515 | 50 | 109 | 0.0 | 0.0 | 0.00 | 0.00 | 0.00 | 84 | 1015.2 |
| 20260505113018 | 50 | 109 | 0.0 | 0.0 | 0.00 | 0.00 | 0.00 | 84 | 1014.9 |
| 20260505111520 | 50 | 109 | 0.0 | 0.0 | 0.00 | 0.00 | 0.00 | 82 | 1014.9 |
| 20260505101520 | 52 | 109 | 0.0 | 1.0 | 0.00 | 0.00 | 0.00 | 87 | 1014.7 |
| 20260505100024 | 51 | 109 | 1.0 | 2.0 | 0.00 | 0.00 | 0.00 | 86 | 1014.6 |
| 20260505094511 | 51 | 109 | 0.0 | 0.0 | 0.00 | 0.00 | 0.00 | 82 | 1014.5 |
| 20260505093013 | 51 | 109 | 0.0 | 0.0 | 0.00 | 0.00 | 0.00 | 80 | 1014.4 |
| 20260505091517 | 52 | 109 | 0.0 | 0.0 | 0.00 | 0.00 | 0.00 | 80 | 1014.6 |
| 20260505090003 | 52 | 109 | 0.0 | 0.0 | 0.00 | 0.00 | 0.00 | 78 | 1014.6 |
| 20260505084510 | 53 | 109 | 0.0 | 0.0 | 0.00 | 0.00 | 0.00 | 79 | 1014.6 |
| 20260505083010 | 53 | 109 | 0.0 | 0.0 | 0.00 | 0.00 | 0.00 | 79 | 1014.7 |
| 20260505081519 | 54 | 109 | 0.0 | 0.0 | 0.00 | 0.00 | 0.00 | 78 | 1014.8 |
| 20260505080020 | 54 | 109 | 0.0 | 0.0 | 0.00 | 0.00 | 0.00 | 76 | 1014.7 |
| 20260505074507 | 55 | 109 | 0.0 | 0.0 | 0.00 | 0.00 | 0.00 | 75 | 1014.7 |
| 20260505073008 | 55 | 109 | 0.0 | 2.0 | 0.00 | 0.00 | 0.00 | 73 | 1014.7 |
| 20260505071516 | 56 | 109 | 0.0 | 2.0 | 0.00 | 0.00 | 0.00 | 73 | 1014.6 |
| 20260505070016 | 56 | 109 | 0.0 | 1.0 | 0.00 | 0.00 | 0.00 | 72 | 1014.5 |
| 20260505064521 | 57 | 109 | 0.0 | 0.0 | 0.00 | 0.00 | 0.00 | 71 | 1014.6 |
| 20260505063005 | 57 | 109 | 0.0 | 0.0 | 0.00 | 0.00 | 0.00 | 71 | 1014.7 |
| 20260505061510 | 57 | 109 | 0.0 | 0.0 | 0.00 | 0.00 | 0.00 | 70 | 1014.9 |
| 20260505060014 | 58 | 109 | 0.0 | 0.0 | 0.00 | 0.00 | 0.00 | 69 | 1015.0 |
| 20260505054522 | 58 | 109 | 0.0 | 0.0 | 0.00 | 0.00 | 0.00 | 66 | 1014.9 |
| 20260505053032 | 58 | 109 | 0.0 | 0.0 | 0.00 | 0.00 | 0.00 | 68 | 1015.0 |
| 20260505051516 | 59 | 109 | 0.0 | 0.0 | 0.00 | 0.00 | 0.00 | 69 | 1014.8 |
| 20260505041530 | 59 | 109 | 0.0 | 2.0 | 0.00 | 0.00 | 0.00 | 69 | 1014.9 |
| 20260505040013 | 60 | 109 | 0.0 | 0.0 | 0.00 | 0.00 | 0.00 | 71 | 1014.9 |
| 20260505034524 | 60 | 109 | 0.0 | 0.0 | 0.00 | 0.00 | 0.00 | 67 | 1015.0 |
| 20260505033022 | 60 | 109 | 0.0 | 0.0 | 0.00 | 0.00 | 0.00 | 68 | 1015.1 |
| 20260505031526 | 60 | 109 | 0.0 | 0.0 | 0.00 | 0.00 | 0.00 | 67 | 1015.0 |
| 20260505030026 | 61 | 109 | 0.0 | 0.0 | 0.00 | 0.00 | 0.00 | 66 | 1015.1 |
| 20260505024515 | 61 | 109 | 0.0 | 0.0 | 0.00 | 0.00 | 0.00 | 66 | 1015.0 |
| 20260505023019 | 62 | 109 | 0.0 | 0.0 | 0.00 | 0.00 | 0.00 | 64 | 1015.1 |
| 20260505021523 | 62 | 109 | 0.0 | 0.0 | 0.00 | 0.00 | 0.00 | 63 | 1015.0 |
| 20260505020024 | 63 | 109 | 0.0 | 0.0 | 0.00 | 0.00 | 0.00 | 63 | 1014.9 |
| 20260505014528 | 64 | 109 | 0.0 | 0.0 | 0.00 | 0.00 | 0.00 | 61 | 1014.7 |
| 20260505013020 | 65 | 109 | 0.0 | 2.0 | 0.00 | 0.00 | 0.00 | 58 | 1014.6 |
| 20260505011544 | 66 | 109 | 0.0 | 0.0 | 0.00 | 0.00 | 0.00 | 56 | 1014.5 |
| 20260505010026 | 67 | 109 | 0.0 | 0.0 | 0.00 | 0.00 | 0.00 | 53 | 1014.4 |
| 20260505004507 | 68 | 109 | 0.0 | 0.0 | 0.00 | 0.00 | 0.00 | 49 | 1014.2 |
| 20260505003003 | 69 | 109 | 0.0 | 2.0 | 0.00 | 0.00 | 0.00 | 49 | 1013.9 |
| 20260505001503 | 70 | 109 | 0.0 | 1.0 | 0.00 | 0.00 | 0.00 | 48 | 1013.8 |
| 20260505000004 | 71 | 109 | 0.0 | 0.0 | 0.00 | 0.00 | 0.00 | 46 | 1013.7 |
| 20260504234507 | 71 | 107 | 0.0 | 2.0 | 0.00 | 0.00 | 0.00 | 45 | 1013.7 |
| 20260504233008 | 73 | 94 | 0.0 | 2.0 | 0.00 | 0.00 | 0.00 | 46 | 1013.7 |
| 20260504231504 | 74 | 1 | 0.0 | 2.0 | 0.00 | 0.00 | 0.00 | 40 | 1013.6 |
| 20260504230004 | 75 | 77 | 0.0 | 2.0 | 0.00 | 0.00 | 0.00 | 40 | 1013.6 |
| 20260504224512 | 75 | 77 | 0.0 | 2.0 | 0.00 | 0.00 | 0.00 | 42 | 1013.5 |
| 20260504223013 | 75 | 84 | 0.0 | 2.0 | 0.00 | 0.00 | 0.00 | 42 | 1013.6 |
| 20260504221512 | 74 | 77 | 0.0 | 2.0 | 0.00 | 0.00 | 0.00 | 41 | 1013.7 |
| 20260504220004 | 75 | 75 | 0.0 | 2.0 | 0.00 | 0.00 | 0.00 | 43 | 1013.8 |
| 20260504214508 | 75 | 5 | 0.0 | 2.0 | 0.00 | 0.00 | 0.00 | 38 | 1013.6 |
| 20260504213007 | 75 | 55 | 0.0 | 2.0 | 0.00 | 0.00 | 0.00 | 41 | 1013.7 |
| 20260504211514 | 77 | 17 | 0.0 | 5.0 | 0.00 | 0.00 | 0.00 | 36 | 1013.6 |